< Typhoon 198520 1985 Season Typhoon 198522 >
Typhoon 198521 (CECIL)
General InformationTrack Information on Google MapsDetailed Wind InformationList of All Images || Disaster Info.ResourceGoogle EarthGE AnimationAtom FeedGeoJSON
Detalied Best Track (Time Zone = UTC)
Year Month Day Hour Lat. Long. Pressure (hPa) Wind (kt) Class Image Chart
1985 10 11 06 9.2 127.2 1002 0 2 Image Chart
1985 10 11 12 9.4 125.6 1002 0 2 Image Chart
1985 10 11 18 9.9 123.9 1006 0 2 Image Chart
1985 10 12 00 10.1 121.8 1004 0 2 Image Chart
1985 10 12 06 10.5 120.3 1002 0 2 Image Chart
1985 10 12 12 11.2 119.0 998 40 3 Image Chart
1985 10 12 18 11.3 117.8 996 40 3 Image Chart
1985 10 13 00 11.8 117.0 990 50 4 Image Chart
1985 10 13 06 12.0 116.5 985 55 4 Image Chart
1985 10 13 12 12.3 116.0 985 55 4 Image Chart
1985 10 13 18 12.8 115.5 980 60 4 Image Chart
1985 10 14 00 13.3 114.9 975 60 4 Image Chart
1985 10 14 06 13.9 114.2 970 70 5 Image Chart
1985 10 14 12 14.4 113.5 965 80 5 Image Chart
1985 10 14 18 15.0 112.8 965 80 5 Image Chart
1985 10 15 00 15.5 111.7 965 80 5 Image Chart
1985 10 15 06 15.9 110.6 965 80 5 Image Chart
1985 10 15 12 16.4 109.4 960 80 5 Image Chart
1985 10 15 18 16.9 108.1 965 80 5 Image Chart
1985 10 16 00 17.2 106.7 970 70 5 Image Chart
1985 10 16 06 17.5 105.3 985 50 4 Image Chart
1985 10 16 12 17.7 104.0 998 0 2 Image Chart
1985 10 16 18 17.6 102.6 1000 0 2 Image Chart
1985 10 17 00 17.5 101.0 1004 0 2 Image Chart
1985 10 17 06 18.0 100.0 1004 0 2 Image Chart
1985 10 17 12 18.0 98.0 1004 0 2 Image Chart
Japan Meteorological Agency Best Track Data | Correction Date : 1992-10-21
< Typhoon 198520 1985 Season Typhoon 198522 >

Help